sensor_id;sensor_type;location;lat;lon;timestamp;temperature;humidity
21149;DHT22;10732;51.472;6.466;2022-07-17T00:00:03;13.90;99.90
21149;DHT22;10732;51.472;6.466;2022-07-17T00:02:28;13.80;99.90
21149;DHT22;10732;51.472;6.466;2022-07-17T00:04:54;13.80;99.90
21149;DHT22;10732;51.472;6.466;2022-07-17T00:07:20;13.70;99.90
21149;DHT22;10732;51.472;6.466;2022-07-17T00:09:45;13.60;99.90
21149;DHT22;10732;51.472;6.466;2022-07-17T00:12:11;13.50;99.90
21149;DHT22;10732;51.472;6.466;2022-07-17T00:14:36;13.50;99.90
21149;DHT22;10732;51.472;6.466;2022-07-17T00:17:03;13.40;99.90
21149;DHT22;10732;51.472;6.466;2022-07-17T00:19:28;13.40;99.90
21149;DHT22;10732;51.472;6.466;2022-07-17T00:21:54;13.30;99.90
21149;DHT22;10732;51.472;6.466;2022-07-17T00:24:20;13.20;99.90
21149;DHT22;10732;51.472;6.466;2022-07-17T00:26:50;13.30;99.90
21149;DHT22;10732;51.472;6.466;2022-07-17T00:29:16;13.30;99.90
21149;DHT22;10732;51.472;6.466;2022-07-17T00:31:42;13.30;99.90
21149;DHT22;10732;51.472;6.466;2022-07-17T00:34:07;13.20;99.90
21149;DHT22;10732;51.472;6.466;2022-07-17T00:36:33;13.20;99.90
21149;DHT22;10732;51.472;6.466;2022-07-17T00:38:58;13.10;99.90
21149;DHT22;10732;51.472;6.466;2022-07-17T00:41:24;13.10;99.90
21149;DHT22;10732;51.472;6.466;2022-07-17T00:43:50;13.00;99.90
21149;DHT22;10732;51.472;6.466;2022-07-17T00:46:15;13.00;99.90
21149;DHT22;10732;51.472;6.466;2022-07-17T00:48:41;13.00;99.90
21149;DHT22;10732;51.472;6.466;2022-07-17T00:51:06;13.00;99.90
21149;DHT22;10732;51.472;6.466;2022-07-17T00:53:33;13.00;99.90
21149;DHT22;10732;51.472;6.466;2022-07-17T00:56:05;12.90;99.90
21149;DHT22;10732;51.472;6.466;2022-07-17T00:58:34;12.90;99.90
21149;DHT22;10732;51.472;6.466;2022-07-17T01:01:03;12.80;99.90
21149;DHT22;10732;51.472;6.466;2022-07-17T01:03:32;12.80;99.90
21149;DHT22;10732;51.472;6.466;2022-07-17T01:05:58;12.80;99.90
21149;DHT22;10732;51.472;6.466;2022-07-17T01:08:24;12.80;99.90
21149;DHT22;10732;51.472;6.466;2022-07-17T01:10:49;12.80;99.90
21149;DHT22;10732;51.472;6.466;2022-07-17T01:13:16;12.70;99.90
21149;DHT22;10732;51.472;6.466;2022-07-17T01:15:42;12.70;99.90
21149;DHT22;10732;51.472;6.466;2022-07-17T01:18:09;12.60;99.90
21149;DHT22;10732;51.472;6.466;2022-07-17T01:20:37;12.60;99.90
21149;DHT22;10732;51.472;6.466;2022-07-17T01:23:04;12.50;99.90
21149;DHT22;10732;51.472;6.466;2022-07-17T01:25:30;12.50;99.90
21149;DHT22;10732;51.472;6.466;2022-07-17T01:27:56;12.40;99.90
21149;DHT22;10732;51.472;6.466;2022-07-17T01:30:21;12.40;99.90
21149;DHT22;10732;51.472;6.466;2022-07-17T01:32:47;12.40;99.90
21149;DHT22;10732;51.472;6.466;2022-07-17T01:35:14;12.40;99.90
21149;DHT22;10732;51.472;6.466;2022-07-17T01:37:40;12.40;99.90
21149;DHT22;10732;51.472;6.466;2022-07-17T01:40:08;12.40;99.90
21149;DHT22;10732;51.472;6.466;2022-07-17T01:42:34;12.30;99.90
21149;DHT22;10732;51.472;6.466;2022-07-17T01:45:00;12.30;99.90
21149;DHT22;10732;51.472;6.466;2022-07-17T01:47:26;12.20;99.90
21149;DHT22;10732;51.472;6.466;2022-07-17T01:49:53;12.20;99.90
21149;DHT22;10732;51.472;6.466;2022-07-17T01:52:20;12.20;99.90
21149;DHT22;10732;51.472;6.466;2022-07-17T01:54:47;12.20;99.90
21149;DHT22;10732;51.472;6.466;2022-07-17T01:57:12;12.10;99.90
21149;DHT22;10732;51.472;6.466;2022-07-17T01:59:38;12.10;99.90
21149;DHT22;10732;51.472;6.466;2022-07-17T02:02:05;12.10;99.90
21149;DHT22;10732;51.472;6.466;2022-07-17T02:04:35;12.10;99.90
21149;DHT22;10732;51.472;6.466;2022-07-17T02:07:02;12.00;99.90
21149;DHT22;10732;51.472;6.466;2022-07-17T02:09:28;12.00;99.90
21149;DHT22;10732;51.472;6.466;2022-07-17T02:11:54;11.90;99.90
21149;DHT22;10732;51.472;6.466;2022-07-17T02:14:20;11.90;99.90
21149;DHT22;10732;51.472;6.466;2022-07-17T02:16:46;11.80;99.90
21149;DHT22;10732;51.472;6.466;2022-07-17T02:19:11;11.80;99.90
21149;DHT22;10732;51.472;6.466;2022-07-17T02:21:37;11.80;99.90
21149;DHT22;10732;51.472;6.466;2022-07-17T02:24:03;11.80;99.90
21149;DHT22;10732;51.472;6.466;2022-07-17T02:26:28;11.70;99.90
21149;DHT22;10732;51.472;6.466;2022-07-17T02:28:54;11.70;99.90
21149;DHT22;10732;51.472;6.466;2022-07-17T02:31:20;11.70;99.90
21149;DHT22;10732;51.472;6.466;2022-07-17T02:33:46;11.60;99.90
21149;DHT22;10732;51.472;6.466;2022-07-17T02:36:11;11.60;99.90
21149;DHT22;10732;51.472;6.466;2022-07-17T02:38:37;11.60;99.90
21149;DHT22;10732;51.472;6.466;2022-07-17T02:41:02;11.60;99.90
21149;DHT22;10732;51.472;6.466;2022-07-17T02:43:28;11.60;99.90
21149;DHT22;10732;51.472;6.466;2022-07-17T02:45:53;11.60;99.90
21149;DHT22;10732;51.472;6.466;2022-07-17T02:48:19;11.60;99.90
21149;DHT22;10732;51.472;6.466;2022-07-17T02:50:44;11.70;99.90
21149;DHT22;10732;51.472;6.466;2022-07-17T02:53:10;11.70;99.90
21149;DHT22;10732;51.472;6.466;2022-07-17T02:55:36;11.70;99.90
21149;DHT22;10732;51.472;6.466;2022-07-17T02:58:02;11.60;99.90
21149;DHT22;10732;51.472;6.466;2022-07-17T03:00:27;11.60;99.90
21149;DHT22;10732;51.472;6.466;2022-07-17T03:02:53;11.50;99.90
21149;DHT22;10732;51.472;6.466;2022-07-17T03:05:20;11.50;99.90
21149;DHT22;10732;51.472;6.466;2022-07-17T03:07:46;11.40;99.90
21149;DHT22;10732;51.472;6.466;2022-07-17T03:10:13;11.40;99.90
21149;DHT22;10732;51.472;6.466;2022-07-17T03:12:39;11.40;99.90
21149;DHT22;10732;51.472;6.466;2022-07-17T03:15:06;11.40;99.90
21149;DHT22;10732;51.472;6.466;2022-07-17T03:17:32;11.40;99.90
21149;DHT22;10732;51.472;6.466;2022-07-17T03:19:58;11.40;99.90
21149;DHT22;10732;51.472;6.466;2022-07-17T03:22:23;11.40;99.90
21149;DHT22;10732;51.472;6.466;2022-07-17T03:24:49;11.50;99.90
21149;DHT22;10732;51.472;6.466;2022-07-17T03:27:15;11.50;99.90
21149;DHT22;10732;51.472;6.466;2022-07-17T03:29:40;11.50;99.90
21149;DHT22;10732;51.472;6.466;2022-07-17T03:32:06;11.40;99.90
21149;DHT22;10732;51.472;6.466;2022-07-17T03:34:31;11.50;99.90
21149;DHT22;10732;51.472;6.466;2022-07-17T03:36:57;11.50;99.90
21149;DHT22;10732;51.472;6.466;2022-07-17T03:39:23;11.40;99.90
21149;DHT22;10732;51.472;6.466;2022-07-17T03:41:48;11.40;99.90
21149;DHT22;10732;51.472;6.466;2022-07-17T03:44:14;11.30;99.90
21149;DHT22;10732;51.472;6.466;2022-07-17T03:46:39;11.30;99.90
21149;DHT22;10732;51.472;6.466;2022-07-17T03:49:05;11.30;99.90
21149;DHT22;10732;51.472;6.466;2022-07-17T03:51:31;11.20;99.90
21149;DHT22;10732;51.472;6.466;2022-07-17T03:53:57;11.30;99.90
21149;DHT22;10732;51.472;6.466;2022-07-17T03:56:22;11.20;99.90
21149;DHT22;10732;51.472;6.466;2022-07-17T03:58:48;11.30;99.90
21149;DHT22;10732;51.472;6.466;2022-07-17T04:01:14;11.30;99.90
21149;DHT22;10732;51.472;6.466;2022-07-17T04:03:40;11.40;99.90
21149;DHT22;10732;51.472;6.466;2022-07-17T04:06:05;11.40;99.90
21149;DHT22;10732;51.472;6.466;2022-07-17T04:08:31;11.40;99.90
21149;DHT22;10732;51.472;6.466;2022-07-17T04:10:57;11.50;99.90
21149;DHT22;10732;51.472;6.466;2022-07-17T04:13:23;11.60;99.90
21149;DHT22;10732;51.472;6.466;2022-07-17T04:15:48;11.60;99.90
21149;DHT22;10732;51.472;6.466;2022-07-17T04:18:29;11.70;99.90
21149;DHT22;10732;51.472;6.466;2022-07-17T04:20:58;11.80;99.90
21149;DHT22;10732;51.472;6.466;2022-07-17T04:23:24;11.80;99.90
21149;DHT22;10732;51.472;6.466;2022-07-17T04:25:50;11.90;99.90
21149;DHT22;10732;51.472;6.466;2022-07-17T04:28:16;11.90;99.90
21149;DHT22;10732;51.472;6.466;2022-07-17T04:30:42;12.00;99.90
21149;DHT22;10732;51.472;6.466;2022-07-17T04:33:08;12.10;99.90
21149;DHT22;10732;51.472;6.466;2022-07-17T04:35:33;12.30;99.90
21149;DHT22;10732;51.472;6.466;2022-07-17T04:37:59;12.40;99.90
21149;DHT22;10732;51.472;6.466;2022-07-17T04:40:25;12.40;99.90
21149;DHT22;10732;51.472;6.466;2022-07-17T04:42:50;12.50;99.90
21149;DHT22;10732;51.472;6.466;2022-07-17T04:45:16;12.60;99.90
21149;DHT22;10732;51.472;6.466;2022-07-17T04:47:42;12.70;99.90
21149;DHT22;10732;51.472;6.466;2022-07-17T04:50:09;12.80;99.90
21149;DHT22;10732;51.472;6.466;2022-07-17T04:52:35;12.80;99.90
21149;DHT22;10732;51.472;6.466;2022-07-17T04:55:00;12.90;99.90
21149;DHT22;10732;51.472;6.466;2022-07-17T04:57:26;13.00;99.90
21149;DHT22;10732;51.472;6.466;2022-07-17T04:59:52;13.10;99.90
21149;DHT22;10732;51.472;6.466;2022-07-17T05:02:17;13.70;99.90
21149;DHT22;10732;51.472;6.466;2022-07-17T05:04:43;14.70;99.90
21149;DHT22;10732;51.472;6.466;2022-07-17T05:07:08;15.90;99.90
21149;DHT22;10732;51.472;6.466;2022-07-17T05:09:34;16.80;99.90
21149;DHT22;10732;51.472;6.466;2022-07-17T05:11:59;17.10;99.90
21149;DHT22;10732;51.472;6.466;2022-07-17T05:14:25;18.00;99.90
21149;DHT22;10732;51.472;6.466;2022-07-17T05:16:50;18.90;99.90
21149;DHT22;10732;51.472;6.466;2022-07-17T05:19:16;19.20;99.90
21149;DHT22;10732;51.472;6.466;2022-07-17T05:21:42;18.90;99.90
21149;DHT22;10732;51.472;6.466;2022-07-17T05:24:07;18.60;99.90
21149;DHT22;10732;51.472;6.466;2022-07-17T05:26:33;18.40;99.90
21149;DHT22;10732;51.472;6.466;2022-07-17T05:28:58;18.50;99.90
21149;DHT22;10732;51.472;6.466;2022-07-17T05:31:24;19.10;99.90
21149;DHT22;10732;51.472;6.466;2022-07-17T05:33:50;19.70;99.90
21149;DHT22;10732;51.472;6.466;2022-07-17T05:36:15;20.00;99.90
21149;DHT22;10732;51.472;6.466;2022-07-17T05:38:41;20.20;99.90
21149;DHT22;10732;51.472;6.466;2022-07-17T05:41:06;20.80;99.90
21149;DHT22;10732;51.472;6.466;2022-07-17T05:43:32;20.60;99.90
21149;DHT22;10732;51.472;6.466;2022-07-17T05:45:58;20.20;99.90
21149;DHT22;10732;51.472;6.466;2022-07-17T05:48:27;19.90;99.90
21149;DHT22;10732;51.472;6.466;2022-07-17T05:50:53;19.80;99.90
21149;DHT22;10732;51.472;6.466;2022-07-17T05:53:18;20.00;99.90
21149;DHT22;10732;51.472;6.466;2022-07-17T05:55:44;19.90;99.90
21149;DHT22;10732;51.472;6.466;2022-07-17T05:58:10;19.80;99.90
21149;DHT22;10732;51.472;6.466;2022-07-17T06:00:36;19.90;99.90
21149;DHT22;10732;51.472;6.466;2022-07-17T06:03:03;21.50;99.90
21149;DHT22;10732;51.472;6.466;2022-07-17T06:05:28;21.80;99.90
21149;DHT22;10732;51.472;6.466;2022-07-17T06:07:55;22.00;99.90
21149;DHT22;10732;51.472;6.466;2022-07-17T06:10:21;21.80;99.90
21149;DHT22;10732;51.472;6.466;2022-07-17T06:12:47;23.10;99.90
21149;DHT22;10732;51.472;6.466;2022-07-17T06:15:13;23.00;99.90
21149;DHT22;10732;51.472;6.466;2022-07-17T06:17:39;22.90;99.90
21149;DHT22;10732;51.472;6.466;2022-07-17T06:20:05;22.40;99.90
21149;DHT22;10732;51.472;6.466;2022-07-17T06:22:30;23.50;99.90
21149;DHT22;10732;51.472;6.466;2022-07-17T06:24:56;23.00;99.90
21149;DHT22;10732;51.472;6.466;2022-07-17T06:27:22;23.70;99.90
21149;DHT22;10732;51.472;6.466;2022-07-17T06:29:47;25.10;99.90
21149;DHT22;10732;51.472;6.466;2022-07-17T06:32:13;25.20;99.90
21149;DHT22;10732;51.472;6.466;2022-07-17T06:34:39;24.00;99.90
21149;DHT22;10732;51.472;6.466;2022-07-17T06:37:05;24.40;99.90
21149;DHT22;10732;51.472;6.466;2022-07-17T06:39:31;24.20;99.90
21149;DHT22;10732;51.472;6.466;2022-07-17T06:41:56;24.70;99.90
21149;DHT22;10732;51.472;6.466;2022-07-17T06:44:22;24.40;99.90
21149;DHT22;10732;51.472;6.466;2022-07-17T06:46:48;24.00;99.90
21149;DHT22;10732;51.472;6.466;2022-07-17T06:49:13;24.30;99.90
21149;DHT22;10732;51.472;6.466;2022-07-17T06:51:39;24.70;99.90
21149;DHT22;10732;51.472;6.466;2022-07-17T06:54:05;24.80;99.90
21149;DHT22;10732;51.472;6.466;2022-07-17T06:56:31;25.90;99.90
21149;DHT22;10732;51.472;6.466;2022-07-17T06:58:57;26.80;99.90
21149;DHT22;10732;51.472;6.466;2022-07-17T07:01:22;26.80;99.90
21149;DHT22;10732;51.472;6.466;2022-07-17T07:03:48;26.00;99.90
21149;DHT22;10732;51.472;6.466;2022-07-17T07:06:13;25.90;99.90
21149;DHT22;10732;51.472;6.466;2022-07-17T07:08:39;26.10;99.90
21149;DHT22;10732;51.472;6.466;2022-07-17T07:11:04;25.60;99.90
21149;DHT22;10732;51.472;6.466;2022-07-17T07:13:30;25.50;99.90
21149;DHT22;10732;51.472;6.466;2022-07-17T07:15:56;25.40;99.90
21149;DHT22;10732;51.472;6.466;2022-07-17T07:18:21;26.10;99.90
21149;DHT22;10732;51.472;6.466;2022-07-17T07:20:47;25.90;99.90
21149;DHT22;10732;51.472;6.466;2022-07-17T07:23:13;26.10;99.90
21149;DHT22;10732;51.472;6.466;2022-07-17T07:25:38;26.40;99.90
21149;DHT22;10732;51.472;6.466;2022-07-17T07:28:04;27.20;99.90
21149;DHT22;10732;51.472;6.466;2022-07-17T07:30:30;26.70;99.90
21149;DHT22;10732;51.472;6.466;2022-07-17T07:32:56;26.60;99.90
21149;DHT22;10732;51.472;6.466;2022-07-17T07:35:22;26.50;99.90
21149;DHT22;10732;51.472;6.466;2022-07-17T07:37:48;28.20;99.90
21149;DHT22;10732;51.472;6.466;2022-07-17T07:40:13;28.40;99.90
21149;DHT22;10732;51.472;6.466;2022-07-17T07:42:39;29.20;99.90
21149;DHT22;10732;51.472;6.466;2022-07-17T07:45:06;30.50;99.90
21149;DHT22;10732;51.472;6.466;2022-07-17T07:47:32;31.90;99.90
21149;DHT22;10732;51.472;6.466;2022-07-17T07:49:57;32.80;99.90
21149;DHT22;10732;51.472;6.466;2022-07-17T07:52:23;31.90;99.90
21149;DHT22;10732;51.472;6.466;2022-07-17T07:54:49;31.30;99.90
21149;DHT22;10732;51.472;6.466;2022-07-17T07:57:14;28.80;99.90
21149;DHT22;10732;51.472;6.466;2022-07-17T07:59:40;28.60;99.90
21149;DHT22;10732;51.472;6.466;2022-07-17T08:02:06;30.60;99.90
21149;DHT22;10732;51.472;6.466;2022-07-17T08:04:31;30.40;99.90
21149;DHT22;10732;51.472;6.466;2022-07-17T08:06:57;31.20;99.90
21149;DHT22;10732;51.472;6.466;2022-07-17T08:09:23;32.00;99.90
21149;DHT22;10732;51.472;6.466;2022-07-17T08:11:49;32.10;99.90
21149;DHT22;10732;51.472;6.466;2022-07-17T08:14:14;33.90;99.90
21149;DHT22;10732;51.472;6.466;2022-07-17T08:16:40;32.10;99.90
21149;DHT22;10732;51.472;6.466;2022-07-17T08:19:06;31.70;98.80
21149;DHT22;10732;51.472;6.466;2022-07-17T08:21:31;31.90;99.90
21149;DHT22;10732;51.472;6.466;2022-07-17T08:23:57;34.00;99.90
21149;DHT22;10732;51.472;6.466;2022-07-17T08:26:23;32.70;96.60
21149;DHT22;10732;51.472;6.466;2022-07-17T08:28:48;32.40;96.20
21149;DHT22;10732;51.472;6.466;2022-07-17T08:31:14;32.70;96.40
21149;DHT22;10732;51.472;6.466;2022-07-17T08:33:39;33.10;92.60
21149;DHT22;10732;51.472;6.466;2022-07-17T08:36:05;31.90;96.10
21149;DHT22;10732;51.472;6.466;2022-07-17T08:38:31;32.30;90.40
21149;DHT22;10732;51.472;6.466;2022-07-17T08:40:56;30.30;92.70
21149;DHT22;10732;51.472;6.466;2022-07-17T08:43:24;32.30;94.50
21149;DHT22;10732;51.472;6.466;2022-07-17T08:45:51;33.20;91.50
21149;DHT22;10732;51.472;6.466;2022-07-17T08:48:18;34.70;92.40
21149;DHT22;10732;51.472;6.466;2022-07-17T08:50:45;36.00;91.20
21149;DHT22;10732;51.472;6.466;2022-07-17T08:53:10;32.90;81.20
21149;DHT22;10732;51.472;6.466;2022-07-17T08:55:36;31.00;84.30
21149;DHT22;10732;51.472;6.466;2022-07-17T08:58:02;31.50;85.00
21149;DHT22;10732;51.472;6.466;2022-07-17T09:00:30;30.00;84.50
21149;DHT22;10732;51.472;6.466;2022-07-17T09:03:08;30.40;85.50
21149;DHT22;10732;51.472;6.466;2022-07-17T09:05:36;30.20;88.50
21149;DHT22;10732;51.472;6.466;2022-07-17T09:08:04;30.40;87.10
21149;DHT22;10732;51.472;6.466;2022-07-17T09:10:42;30.60;82.70
21149;DHT22;10732;51.472;6.466;2022-07-17T09:15:47;30.70;84.70
21149;DHT22;10732;51.472;6.466;2022-07-17T09:18:14;30.60;85.10
21149;DHT22;10732;51.472;6.466;2022-07-17T09:20:45;31.00;86.10
21149;DHT22;10732;51.472;6.466;2022-07-17T09:23:11;30.90;86.70
21149;DHT22;10732;51.472;6.466;2022-07-17T09:25:46;30.50;86.10
21149;DHT22;10732;51.472;6.466;2022-07-17T09:28:13;30.80;85.80
21149;DHT22;10732;51.472;6.466;2022-07-17T09:30:43;31.40;83.80
21149;DHT22;10732;51.472;6.466;2022-07-17T09:33:14;31.90;82.70
21149;DHT22;10732;51.472;6.466;2022-07-17T09:35:54;31.70;82.90
21149;DHT22;10732;51.472;6.466;2022-07-17T09:38:32;30.80;83.30
21149;DHT22;10732;51.472;6.466;2022-07-17T09:41:17;31.30;83.30
21149;DHT22;10732;51.472;6.466;2022-07-17T09:43:48;31.20;84.40
21149;DHT22;10732;51.472;6.466;2022-07-17T09:46:23;31.30;82.30
21149;DHT22;10732;51.472;6.466;2022-07-17T09:48:52;30.80;80.10
21149;DHT22;10732;51.472;6.466;2022-07-17T09:51:29;30.90;81.70
21149;DHT22;10732;51.472;6.466;2022-07-17T09:54:01;31.60;81.30
21149;DHT22;10732;51.472;6.466;2022-07-17T09:56:28;31.20;81.20
21149;DHT22;10732;51.472;6.466;2022-07-17T09:58:59;31.90;82.10
21149;DHT22;10732;51.472;6.466;2022-07-17T10:01:25;31.70;83.30
21149;DHT22;10732;51.472;6.466;2022-07-17T10:03:52;32.00;78.50
21149;DHT22;10732;51.472;6.466;2022-07-17T10:06:20;33.50;78.20
21149;DHT22;10732;51.472;6.466;2022-07-17T10:08:46;32.80;80.70
21149;DHT22;10732;51.472;6.466;2022-07-17T10:11:13;32.00;79.30
21149;DHT22;10732;51.472;6.466;2022-07-17T10:13:43;31.40;80.20
21149;DHT22;10732;51.472;6.466;2022-07-17T10:16:09;32.00;76.60
21149;DHT22;10732;51.472;6.466;2022-07-17T10:18:38;32.00;77.20
21149;DHT22;10732;51.472;6.466;2022-07-17T10:21:17;31.90;79.10
21149;DHT22;10732;51.472;6.466;2022-07-17T10:24:05;32.70;78.60
21149;DHT22;10732;51.472;6.466;2022-07-17T10:29:58;32.20;76.10
21149;DHT22;10732;51.472;6.466;2022-07-17T10:31:52;32.20;71.80
21149;DHT22;10732;51.472;6.466;2022-07-17T10:34:35;31.00;70.90
21149;DHT22;10732;51.472;6.466;2022-07-17T10:37:02;30.90;71.30
21149;DHT22;10732;51.472;6.466;2022-07-17T10:39:27;32.10;68.60
21149;DHT22;10732;51.472;6.466;2022-07-17T10:42:01;31.80;69.90
21149;DHT22;10732;51.472;6.466;2022-07-17T10:44:31;31.50;72.30
21149;DHT22;10732;51.472;6.466;2022-07-17T10:47:00;32.00;69.90
21149;DHT22;10732;51.472;6.466;2022-07-17T10:49:26;32.00;67.60
21149;DHT22;10732;51.472;6.466;2022-07-17T10:51:52;32.00;71.30
21149;DHT22;10732;51.472;6.466;2022-07-17T10:54:19;31.60;76.50
21149;DHT22;10732;51.472;6.466;2022-07-17T10:56:46;31.50;73.80
21149;DHT22;10732;51.472;6.466;2022-07-17T10:59:11;31.30;69.70
21149;DHT22;10732;51.472;6.466;2022-07-17T11:01:37;31.50;75.00
21149;DHT22;10732;51.472;6.466;2022-07-17T11:04:04;30.30;72.30
21149;DHT22;10732;51.472;6.466;2022-07-17T11:06:31;30.50;73.40
21149;DHT22;10732;51.472;6.466;2022-07-17T11:08:59;30.70;78.50
21149;DHT22;10732;51.472;6.466;2022-07-17T11:11:46;30.60;70.60
21149;DHT22;10732;51.472;6.466;2022-07-17T11:14:21;30.70;71.30
21149;DHT22;10732;51.472;6.466;2022-07-17T11:16:53;30.70;73.40
21149;DHT22;10732;51.472;6.466;2022-07-17T11:22:00;31.30;68.60
21149;DHT22;10732;51.472;6.466;2022-07-17T11:24:36;31.10;71.60
21149;DHT22;10732;51.472;6.466;2022-07-17T11:27:02;31.70;67.60
21149;DHT22;10732;51.472;6.466;2022-07-17T11:29:27;31.70;68.60
21149;DHT22;10732;51.472;6.466;2022-07-17T11:31:56;31.10;69.50
21149;DHT22;10732;51.472;6.466;2022-07-17T11:34:25;29.70;69.60
21149;DHT22;10732;51.472;6.466;2022-07-17T11:36:50;30.40;67.90
21149;DHT22;10732;51.472;6.466;2022-07-17T11:39:17;30.20;72.30
21149;DHT22;10732;51.472;6.466;2022-07-17T11:41:45;29.80;68.60
21149;DHT22;10732;51.472;6.466;2022-07-17T11:44:15;29.80;68.50
21149;DHT22;10732;51.472;6.466;2022-07-17T11:46:43;29.90;65.80
21149;DHT22;10732;51.472;6.466;2022-07-17T11:49:09;29.30;69.50
21149;DHT22;10732;51.472;6.466;2022-07-17T11:51:41;29.30;69.20
21149;DHT22;10732;51.472;6.466;2022-07-17T11:54:13;28.90;73.40
21149;DHT22;10732;51.472;6.466;2022-07-17T11:56:41;28.70;66.90
21149;DHT22;10732;51.472;6.466;2022-07-17T11:59:07;29.00;68.20
21149;DHT22;10732;51.472;6.466;2022-07-17T12:01:42;28.70;67.10
21149;DHT22;10732;51.472;6.466;2022-07-17T12:04:10;28.30;66.50
21149;DHT22;10732;51.472;6.466;2022-07-17T12:06:36;28.00;66.50
21149;DHT22;10732;51.472;6.466;2022-07-17T12:09:03;28.10;68.90
21149;DHT22;10732;51.472;6.466;2022-07-17T12:11:28;28.30;68.30
21149;DHT22;10732;51.472;6.466;2022-07-17T12:13:54;28.50;69.80
21149;DHT22;10732;51.472;6.466;2022-07-17T12:16:30;28.40;68.50
21149;DHT22;10732;51.472;6.466;2022-07-17T12:19:10;28.40;71.00
21149;DHT22;10732;51.472;6.466;2022-07-17T12:22:06;28.60;63.40
21149;DHT22;10732;51.472;6.466;2022-07-17T12:24:43;28.00;61.50
21149;DHT22;10732;51.472;6.466;2022-07-17T12:27:18;28.20;62.30
21149;DHT22;10732;51.472;6.466;2022-07-17T12:29:44;28.30;65.10
21149;DHT22;10732;51.472;6.466;2022-07-17T12:32:15;28.00;64.70
21149;DHT22;10732;51.472;6.466;2022-07-17T12:34:44;27.60;67.30
21149;DHT22;10732;51.472;6.466;2022-07-17T12:37:18;27.80;67.20
21149;DHT22;10732;51.472;6.466;2022-07-17T12:39:45;27.60;67.60
21149;DHT22;10732;51.472;6.466;2022-07-17T12:42:11;27.60;64.60
21149;DHT22;10732;51.472;6.466;2022-07-17T12:44:37;27.60;66.50
21149;DHT22;10732;51.472;6.466;2022-07-17T12:47:03;27.70;67.30
21149;DHT22;10732;51.472;6.466;2022-07-17T12:49:29;28.10;71.80
21149;DHT22;10732;51.472;6.466;2022-07-17T12:51:55;28.60;72.20
21149;DHT22;10732;51.472;6.466;2022-07-17T12:54:21;29.10;69.80
21149;DHT22;10732;51.472;6.466;2022-07-17T12:56:47;29.10;69.70
21149;DHT22;10732;51.472;6.466;2022-07-17T12:59:13;29.10;70.20
21149;DHT22;10732;51.472;6.466;2022-07-17T13:01:38;28.60;68.20
21149;DHT22;10732;51.472;6.466;2022-07-17T13:04:04;28.10;66.00
21149;DHT22;10732;51.472;6.466;2022-07-17T13:06:30;28.00;69.20
21149;DHT22;10732;51.472;6.466;2022-07-17T13:08:55;28.00;66.10
21149;DHT22;10732;51.472;6.466;2022-07-17T13:11:21;28.10;67.60
21149;DHT22;10732;51.472;6.466;2022-07-17T13:13:46;27.60;62.80
21149;DHT22;10732;51.472;6.466;2022-07-17T13:16:13;27.60;64.20
21149;DHT22;10732;51.472;6.466;2022-07-17T13:18:39;27.60;63.00
21149;DHT22;10732;51.472;6.466;2022-07-17T13:21:06;28.10;66.20
21149;DHT22;10732;51.472;6.466;2022-07-17T13:23:32;28.30;64.50
21149;DHT22;10732;51.472;6.466;2022-07-17T13:25:59;28.20;62.10
21149;DHT22;10732;51.472;6.466;2022-07-17T13:28:25;28.30;65.20
21149;DHT22;10732;51.472;6.466;2022-07-17T13:30:51;28.30;63.70
21149;DHT22;10732;51.472;6.466;2022-07-17T13:33:17;28.40;63.70
21149;DHT22;10732;51.472;6.466;2022-07-17T13:35:43;28.30;63.20
21149;DHT22;10732;51.472;6.466;2022-07-17T13:38:08;28.50;63.40
21149;DHT22;10732;51.472;6.466;2022-07-17T13:40:35;28.70;60.50
21149;DHT22;10732;51.472;6.466;2022-07-17T13:43:01;28.50;62.10
21149;DHT22;10732;51.472;6.466;2022-07-17T13:45:27;28.60;60.50
21149;DHT22;10732;51.472;6.466;2022-07-17T13:47:54;28.40;59.30
21149;DHT22;10732;51.472;6.466;2022-07-17T13:50:19;28.30;58.90
21149;DHT22;10732;51.472;6.466;2022-07-17T13:52:46;27.90;58.80
21149;DHT22;10732;51.472;6.466;2022-07-17T13:55:11;28.00;57.40
21149;DHT22;10732;51.472;6.466;2022-07-17T13:57:37;28.10;58.10
21149;DHT22;10732;51.472;6.466;2022-07-17T14:00:04;28.10;56.60
21149;DHT22;10732;51.472;6.466;2022-07-17T14:02:30;27.70;55.20
21149;DHT22;10732;51.472;6.466;2022-07-17T14:04:55;27.70;56.90
21149;DHT22;10732;51.472;6.466;2022-07-17T14:07:21;27.90;55.90
21149;DHT22;10732;51.472;6.466;2022-07-17T14:09:46;28.10;54.80
21149;DHT22;10732;51.472;6.466;2022-07-17T14:12:12;27.70;54.90
21149;DHT22;10732;51.472;6.466;2022-07-17T14:14:38;28.00;53.30
21149;DHT22;10732;51.472;6.466;2022-07-17T14:17:03;28.00;52.70
21149;DHT22;10732;51.472;6.466;2022-07-17T14:19:29;28.00;54.50
21149;DHT22;10732;51.472;6.466;2022-07-17T14:21:55;28.30;55.10
21149;DHT22;10732;51.472;6.466;2022-07-17T14:24:20;28.40;54.60
21149;DHT22;10732;51.472;6.466;2022-07-17T14:26:46;28.20;53.60
21149;DHT22;10732;51.472;6.466;2022-07-17T14:29:14;28.10;53.10
21149;DHT22;10732;51.472;6.466;2022-07-17T14:31:40;27.90;52.30
21149;DHT22;10732;51.472;6.466;2022-07-17T14:34:05;27.40;52.00
21149;DHT22;10732;51.472;6.466;2022-07-17T14:36:31;27.50;54.40
21149;DHT22;10732;51.472;6.466;2022-07-17T14:38:57;27.90;51.90
21149;DHT22;10732;51.472;6.466;2022-07-17T14:41:22;27.70;53.10
21149;DHT22;10732;51.472;6.466;2022-07-17T14:43:48;28.00;55.00
21149;DHT22;10732;51.472;6.466;2022-07-17T14:46:14;28.20;55.40
21149;DHT22;10732;51.472;6.466;2022-07-17T14:48:40;28.10;54.30
21149;DHT22;10732;51.472;6.466;2022-07-17T14:51:05;27.80;54.40
21149;DHT22;10732;51.472;6.466;2022-07-17T14:53:31;27.60;54.60
21149;DHT22;10732;51.472;6.466;2022-07-17T14:55:57;27.60;55.50
21149;DHT22;10732;51.472;6.466;2022-07-17T14:58:23;27.80;55.50
21149;DHT22;10732;51.472;6.466;2022-07-17T15:00:49;27.70;55.60
21149;DHT22;10732;51.472;6.466;2022-07-17T15:03:14;27.50;55.70
21149;DHT22;10732;51.472;6.466;2022-07-17T15:05:40;27.60;53.60
21149;DHT22;10732;51.472;6.466;2022-07-17T15:08:06;27.70;54.00
21149;DHT22;10732;51.472;6.466;2022-07-17T15:10:31;27.90;52.80
21149;DHT22;10732;51.472;6.466;2022-07-17T15:12:58;28.20;54.20
21149;DHT22;10732;51.472;6.466;2022-07-17T15:15:25;27.90;52.70
21149;DHT22;10732;51.472;6.466;2022-07-17T15:17:50;27.90;52.80
21149;DHT22;10732;51.472;6.466;2022-07-17T15:20:16;27.90;53.40
21149;DHT22;10732;51.472;6.466;2022-07-17T15:22:41;27.90;53.90
21149;DHT22;10732;51.472;6.466;2022-07-17T15:25:07;27.50;52.40
21149;DHT22;10732;51.472;6.466;2022-07-17T15:27:33;27.60;52.90
21149;DHT22;10732;51.472;6.466;2022-07-17T15:29:58;27.80;53.80
21149;DHT22;10732;51.472;6.466;2022-07-17T15:32:24;27.50;51.60
21149;DHT22;10732;51.472;6.466;2022-07-17T15:34:49;27.40;51.50